Time;durP1;ratioP1;P1;durP2;ratioP2;P2;SDS_P1;SDS_P2;PMS_P1;PMS_P2;Temp;Humidity;BMP_temperature;BMP_pressure;BME280_temperature;BME280_humidity;BME280_pressure;Samples;Min_cycle;Max_cycle;Signal;HPM_P1;HPM_P2
2022/07/01 00:01:36;;;;;;;5.95;2.35;;;;;;;;;;5003036;28;20087;-75
2022/07/01 00:04:02;;;;;;;6.53;2.55;;;;;;;;;;4998407;28;20062;-75
2022/07/01 00:06:28;;;;;;;3.70;1.90;;;;;;;;;;4996906;28;20030;-75
2022/07/01 00:08:54;;;;;;;5.60;2.30;;;;;;;;;;4999027;28;20031;-74
2022/07/01 00:11:23;;;;;;;5.55;2.10;;;;;;;;;;4989176;28;20059;-75
2022/07/01 00:13:49;;;;;;;5.22;2.08;;;;;;;;;;4980150;28;20054;-75
2022/07/01 00:16:15;;;;;;;4.68;2.13;;;;;;;;;;4979700;28;20027;-75
2022/07/01 00:18:41;;;;;;;6.85;2.35;;;;;;;;;;4980308;28;20058;-75
2022/07/01 00:21:07;;;;;;;5.20;2.10;;;;;;;;;;5015072;28;20033;-75
2022/07/01 00:23:34;;;;;;;6.90;2.38;;;;;;;;;;4982417;28;20031;-75
2022/07/01 00:26:00;;;;;;;5.88;2.45;;;;;;;;;;4987108;28;20043;-75
2022/07/01 00:28:26;;;;;;;6.40;2.00;;;;;;;;;;4997672;28;20042;-75
2022/07/01 00:30:52;;;;;;;4.20;1.90;;;;;;;;;;4995284;28;20059;-75
2022/07/01 00:33:18;;;;;;;3.72;1.90;;;;;;;;;;4980524;28;20034;-75
2022/07/01 00:35:45;;;;;;;4.28;1.80;;;;;;;;;;4981685;28;20106;-75
2022/07/01 00:38:11;;;;;;;4.10;1.70;;;;;;;;;;4985158;28;20035;-75
2022/07/01 00:40:37;;;;;;;2.30;1.65;;;;;;;;;;4979800;28;20098;-75
2022/07/01 00:43:04;;;;;;;5.00;2.00;;;;;;;;;;4979769;28;20043;-75
2022/07/01 00:45:30;;;;;;;2.28;1.85;;;;;;;;;;4989040;28;20027;-75
2022/07/01 00:47:57;;;;;;;3.28;1.85;;;;;;;;;;5007298;28;20031;-75
2022/07/01 00:50:23;;;;;;;2.50;1.83;;;;;;;;;;4996031;28;20037;-75
2022/07/01 00:52:50;;;;;;;3.83;1.90;;;;;;;;;;4998368;28;20033;-75
2022/07/01 00:55:16;;;;;;;3.05;1.90;;;;;;;;;;4998512;28;20030;-75
2022/07/01 00:57:43;;;;;;;3.55;2.15;;;;;;;;;;5001868;28;20036;-75
2022/07/01 01:00:11;;;;;;;4.40;2.30;;;;;;;;;;4996666;28;20050;-75
2022/07/01 01:02:37;;;;;;;3.55;2.28;;;;;;;;;;5005618;28;20022;-75
2022/07/01 01:05:04;;;;;;;4.25;2.40;;;;;;;;;;4991872;28;20023;-75
2022/07/01 01:07:31;;;;;;;3.40;2.10;;;;;;;;;;4979606;28;20034;-75
2022/07/01 01:09:58;;;;;;;3.30;2.40;;;;;;;;;;4981606;28;20027;-75
2022/07/01 01:12:25;;;;;;;3.20;2.30;;;;;;;;;;4979509;28;20087;-75
2022/07/01 01:14:52;;;;;;;4.40;2.50;;;;;;;;;;4990337;28;20034;-75
2022/07/01 01:17:20;;;;;;;4.20;2.40;;;;;;;;;;5000457;28;20030;-75
2022/07/01 01:19:46;;;;;;;3.03;2.33;;;;;;;;;;4987714;28;20035;-75
2022/07/01 01:22:15;;;;;;;3.50;2.38;;;;;;;;;;4979336;28;20031;-75
2022/07/01 01:24:42;;;;;;;4.80;2.78;;;;;;;;;;4979365;28;20046;-75
2022/07/01 01:27:08;;;;;;;2.90;2.50;;;;;;;;;;4986072;28;20023;-75
2022/07/01 01:29:35;;;;;;;4.65;2.70;;;;;;;;;;5000309;28;20053;-76
2022/07/01 01:32:02;;;;;;;3.85;2.70;;;;;;;;;;4992729;28;20034;-75
2022/07/01 01:34:28;;;;;;;3.78;2.45;;;;;;;;;;4997868;28;20034;-76
2022/07/01 01:36:54;;;;;;;4.47;2.60;;;;;;;;;;4994671;28;20027;-75
2022/07/01 01:39:20;;;;;;;4.35;2.60;;;;;;;;;;4995040;28;20058;-75
2022/07/01 01:41:47;;;;;;;4.45;2.65;;;;;;;;;;4993578;28;20031;-75
2022/07/01 01:44:13;;;;;;;4.35;2.90;;;;;;;;;;4996574;28;20082;-76
2022/07/01 01:46:39;;;;;;;5.90;3.00;;;;;;;;;;4986981;28;20033;-75
2022/07/01 01:49:06;;;;;;;3.20;2.85;;;;;;;;;;4982690;28;20054;-75
2022/07/01 01:51:32;;;;;;;4.55;3.17;;;;;;;;;;4985087;28;20019;-75
2022/07/01 01:53:58;;;;;;;4.22;3.30;;;;;;;;;;5009501;28;20022;-75
2022/07/01 01:56:25;;;;;;;4.90;3.38;;;;;;;;;;5015113;28;20039;-75
2022/07/01 01:58:51;;;;;;;4.18;3.58;;;;;;;;;;5000053;28;20103;-76
2022/07/01 02:01:17;;;;;;;6.10;3.40;;;;;;;;;;5000756;28;20055;-75
2022/07/01 02:03:44;;;;;;;4.50;3.53;;;;;;;;;;4991897;28;20023;-75
2022/07/01 02:06:11;;;;;;;4.35;3.33;;;;;;;;;;5001432;28;20033;-75
2022/07/01 02:08:38;;;;;;;4.22;3.40;;;;;;;;;;5000366;28;20030;-76
2022/07/01 02:11:04;;;;;;;4.10;3.50;;;;;;;;;;4982294;28;20039;-74
2022/07/01 02:13:30;;;;;;;5.75;3.80;;;;;;;;;;4996278;28;20054;-75
2022/07/01 02:15:56;;;;;;;4.47;4.00;;;;;;;;;;5001620;28;20046;-75
2022/07/01 02:18:23;;;;;;;5.45;4.00;;;;;;;;;;4983016;28;20053;-75
2022/07/01 02:20:49;;;;;;;5.50;4.03;;;;;;;;;;4981574;28;20035;-75
2022/07/01 02:23:15;;;;;;;6.95;4.28;;;;;;;;;;4982135;28;20027;-75
2022/07/01 02:25:41;;;;;;;5.50;4.32;;;;;;;;;;4997742;28;20031;-75
2022/07/01 02:28:07;;;;;;;5.72;4.53;;;;;;;;;;4997342;28;20026;-75
2022/07/01 02:30:36;;;;;;;6.28;4.78;;;;;;;;;;4996229;28;20087;-75
2022/07/01 02:33:03;;;;;;;7.00;5.05;;;;;;;;;;5007134;28;20042;-75
2022/07/01 02:35:29;;;;;;;7.30;5.32;;;;;;;;;;4997791;28;20092;-76
2022/07/01 02:37:55;;;;;;;6.75;4.57;;;;;;;;;;5001084;28;20085;-75
2022/07/01 02:40:21;;;;;;;6.43;4.93;;;;;;;;;;4990912;28;20059;-75
2022/07/01 02:42:47;;;;;;;6.75;4.78;;;;;;;;;;4992059;28;20058;-75
2022/07/01 02:45:13;;;;;;;5.57;4.47;;;;;;;;;;5000306;28;20034;-75
2022/07/01 02:47:40;;;;;;;6.15;5.10;;;;;;;;;;4999513;28;20718;-75
2022/07/01 02:50:07;;;;;;;6.20;4.82;;;;;;;;;;4984995;28;20046;-75
2022/07/01 02:52:34;;;;;;;6.72;4.70;;;;;;;;;;4989415;28;20112;-75
2022/07/01 02:55:00;;;;;;;6.20;4.63;;;;;;;;;;4996050;28;20084;-75
2022/07/01 02:57:26;;;;;;;6.80;4.95;;;;;;;;;;5019755;28;20030;-75
2022/07/01 02:59:53;;;;;;;7.50;5.22;;;;;;;;;;5012971;28;20086;-75
2022/07/01 03:02:19;;;;;;;5.43;4.90;;;;;;;;;;4990007;28;20035;-75
2022/07/01 03:04:49;;;;;;;5.75;4.63;;;;;;;;;;4984757;28;20027;-75
2022/07/01 03:07:15;;;;;;;6.97;5.20;;;;;;;;;;4990690;28;20034;-75
2022/07/01 03:09:41;;;;;;;7.95;5.18;;;;;;;;;;5000184;28;20035;-75
2022/07/01 03:12:29;;;;;;;6.30;4.60;;;;;;;;;;5000118;28;20035;-75
2022/07/01 03:14:59;;;;;;;6.70;4.35;;;;;;;;;;4982383;28;20078;-75
2022/07/01 03:17:26;;;;;;;5.88;4.53;;;;;;;;;;4981150;28;20035;-75
2022/07/01 03:19:52;;;;;;;5.10;3.90;;;;;;;;;;4980982;28;20098;-74
2022/07/01 03:22:20;;;;;;;5.32;3.58;;;;;;;;;;4980735;28;20050;-75
2022/07/01 03:24:46;;;;;;;6.43;4.30;;;;;;;;;;4995732;28;20035;-75
2022/07/01 03:27:12;;;;;;;4.13;3.72;;;;;;;;;;4999488;28;20103;-75
2022/07/01 03:29:38;;;;;;;4.93;3.97;;;;;;;;;;4999742;28;20035;-75
2022/07/01 03:32:04;;;;;;;8.85;4.05;;;;;;;;;;4999552;28;20031;-75
2022/07/01 03:34:30;;;;;;;5.07;4.20;;;;;;;;;;4998740;28;20054;-75
2022/07/01 03:36:56;;;;;;;5.03;3.58;;;;;;;;;;5004810;28;20030;-75
2022/07/01 03:39:22;;;;;;;8.57;4.75;;;;;;;;;;5018670;28;20042;-76
2022/07/01 03:41:48;;;;;;;7.18;4.50;;;;;;;;;;5007702;28;20063;-75
2022/07/01 03:44:14;;;;;;;5.95;4.32;;;;;;;;;;4982546;28;20047;-74
2022/07/01 03:46:40;;;;;;;7.13;4.85;;;;;;;;;;4996158;28;20050;-76
2022/07/01 03:49:08;;;;;;;6.82;4.95;;;;;;;;;;4999558;28;20030;-75
2022/07/01 03:51:34;;;;;;;6.88;4.88;;;;;;;;;;5018799;28;20049;-75
2022/07/01 03:56:45;;;;;;;6.28;5.03;;;;;;;;;;4999789;28;20035;-75
2022/07/01 03:59:11;;;;;;;9.63;5.70;;;;;;;;;;4996782;28;20066;-75
2022/07/01 04:01:37;;;;;;;7.82;5.65;;;;;;;;;;5013745;28;20033;-75
2022/07/01 04:04:03;;;;;;;8.98;6.05;;;;;;;;;;4993074;28;20035;-75
2022/07/01 04:06:29;;;;;;;8.80;5.22;;;;;;;;;;4979701;28;20043;-75
2022/07/01 04:08:55;;;;;;;8.52;5.90;;;;;;;;;;4979542;28;20063;-75
2022/07/01 04:11:21;;;;;;;8.13;5.65;;;;;;;;;;4979819;28;20043;-75
2022/07/01 04:13:50;;;;;;;7.13;5.68;;;;;;;;;;4980180;28;20059;-75
2022/07/01 04:16:17;;;;;;;8.80;5.57;;;;;;;;;;5002496;28;20027;-75
2022/07/01 04:18:43;;;;;;;11.15;6.22;;;;;;;;;;4990601;28;20147;-75
2022/07/01 04:23:56;;;;;;;6.60;5.95;;;;;;;;;;4986878;28;20037;-76
2022/07/01 04:26:22;;;;;;;7.97;5.90;;;;;;;;;;4998154;28;20123;-75
2022/07/01 04:28:48;;;;;;;7.45;6.30;;;;;;;;;;4999307;28;20031;-74
2022/07/01 04:31:14;;;;;;;8.18;6.68;;;;;;;;;;5015485;28;20026;-75
2022/07/01 04:33:41;;;;;;;13.13;6.32;;;;;;;;;;5003623;28;20057;-75
2022/07/01 04:36:07;;;;;;;7.47;6.32;;;;;;;;;;4998715;28;20095;-76
2022/07/01 04:38:33;;;;;;;9.55;5.95;;;;;;;;;;4998576;28;20037;-75
2022/07/01 04:43:44;;;;;;;9.80;5.90;;;;;;;;;;4997946;28;20038;-76
2022/07/01 04:46:10;;;;;;;8.50;5.90;;;;;;;;;;4983555;28;20098;-75
2022/07/01 04:48:36;;;;;;;6.22;5.22;;;;;;;;;;4983321;28;20031;-75
2022/07/01 04:51:02;;;;;;;8.02;5.70;;;;;;;;;;4998619;28;20033;-75
2022/07/01 04:53:28;;;;;;;7.15;5.13;;;;;;;;;;4998831;28;20030;-76
2022/07/01 04:55:54;;;;;;;7.13;4.97;;;;;;;;;;4979219;28;20087;-75
2022/07/01 04:58:20;;;;;;;8.68;5.43;;;;;;;;;;4979686;28;20046;-75
2022/07/01 05:00:48;;;;;;;9.82;5.38;;;;;;;;;;4993426;28;20065;-75
2022/07/01 05:03:14;;;;;;;7.82;5.00;;;;;;;;;;4989741;28;20043;-75
2022/07/01 05:05:40;;;;;;;8.05;4.50;;;;;;;;;;4998811;28;20022;-75
2022/07/01 05:08:06;;;;;;;8.70;4.32;;;;;;;;;;5004662;28;20054;-75
2022/07/01 05:10:32;;;;;;;8.40;4.10;;;;;;;;;;5018397;28;20038;-74
2022/07/01 05:12:59;;;;;;;7.15;3.95;;;;;;;;;;5008847;28;20030;-75
2022/07/01 05:15:25;;;;;;;8.15;3.83;;;;;;;;;;4996039;28;20034;-75
2022/07/01 05:23:37;;;;;;;7.65;3.80;;;;;;;;;;4989819;28;20027;-74
2022/07/01 05:26:04;;;;;;;7.47;3.65;;;;;;;;;;4982074;28;20027;-75
2022/07/01 05:28:30;;;;;;;9.43;4.10;;;;;;;;;;5002231;28;20037;-75
2022/07/01 05:30:56;;;;;;;8.98;3.90;;;;;;;;;;5001003;28;20037;-74
2022/07/01 05:33:26;;;;;;;9.82;3.83;;;;;;;;;;5003879;28;20021;-74
2022/07/01 05:35:52;;;;;;;10.93;4.07;;;;;;;;;;5020940;28;20038;-74
2022/07/01 05:38:18;;;;;;;9.82;4.28;;;;;;;;;;5010630;28;20103;-73
2022/07/01 05:40:44;;;;;;;5.85;3.60;;;;;;;;;;4997997;28;20114;-75
2022/07/01 05:43:11;;;;;;;9.57;4.22;;;;;;;;;;5000028;28;20176;-75
2022/07/01 05:45:37;;;;;;;7.43;3.25;;;;;;;;;;5001241;28;20038;-74
2022/07/01 05:48:03;;;;;;;5.75;3.50;;;;;;;;;;4984125;28;20046;-74
2022/07/01 05:50:29;;;;;;;8.50;3.78;;;;;;;;;;5001233;28;20094;-74
2022/07/01 05:52:55;;;;;;;5.50;3.20;;;;;;;;;;4980699;28;20042;-74
2022/07/01 05:55:21;;;;;;;8.25;3.85;;;;;;;;;;4994481;28;20035;-75
2022/07/01 05:57:47;;;;;;;8.55;4.10;;;;;;;;;;5001102;28;20034;-75
2022/07/01 06:00:14;;;;;;;9.40;3.90;;;;;;;;;;4990821;28;20031;-75
2022/07/01 06:02:40;;;;;;;9.02;3.60;;;;;;;;;;4982228;28;20063;-76
2022/07/01 06:05:06;;;;;;;9.95;3.90;;;;;;;;;;5001371;28;20047;-75
2022/07/01 06:07:32;;;;;;;6.68;3.85;;;;;;;;;;5000624;28;20027;-75
2022/07/01 06:09:58;;;;;;;10.80;3.53;;;;;;;;;;4995796;28;20042;-75
2022/07/01 06:12:24;;;;;;;6.47;3.63;;;;;;;;;;5001655;28;20041;-75
2022/07/01 06:14:50;;;;;;;6.32;3.90;;;;;;;;;;5001272;28;20031;-75
2022/07/01 06:17:17;;;;;;;8.38;3.55;;;;;;;;;;5000138;28;20090;-75
2022/07/01 06:19:43;;;;;;;6.07;3.22;;;;;;;;;;5001025;28;20061;-74
2022/07/01 06:22:10;;;;;;;8.40;3.92;;;;;;;;;;5001116;28;20019;-75
2022/07/01 06:24:36;;;;;;;8.35;4.18;;;;;;;;;;5008346;28;20022;-74
2022/07/01 06:27:03;;;;;;;7.93;4.32;;;;;;;;;;5009366;28;20030;-74
2022/07/01 06:29:30;;;;;;;8.02;4.45;;;;;;;;;;5001948;28;20042;-75
2022/07/01 06:31:56;;;;;;;9.15;4.93;;;;;;;;;;5000741;28;20038;-74
2022/07/01 06:34:22;;;;;;;10.38;4.93;;;;;;;;;;5000878;28;20106;-75
2022/07/01 06:36:48;;;;;;;8.63;4.97;;;;;;;;;;4994900;28;20050;-75
2022/07/01 06:39:14;;;;;;;11.38;5.80;;;;;;;;;;4981539;28;20066;-75
2022/07/01 06:41:41;;;;;;;11.88;6.57;;;;;;;;;;4988653;28;20093;-75
2022/07/01 06:44:07;;;;;;;12.48;7.07;;;;;;;;;;4984337;28;20023;-75
2022/07/01 06:46:33;;;;;;;14.50;7.22;;;;;;;;;;4992949;28;20066;-75
2022/07/01 06:48:59;;;;;;;11.73;7.28;;;;;;;;;;4985899;28;20027;-75
2022/07/01 06:51:25;;;;;;;13.82;7.88;;;;;;;;;;4996532;28;20034;-75
2022/07/01 06:53:52;;;;;;;13.05;8.15;;;;;;;;;;4996232;28;20027;-76
2022/07/01 06:56:18;;;;;;;13.38;7.90;;;;;;;;;;4995509;28;20038;-75
2022/07/01 06:58:45;;;;;;;15.07;8.40;;;;;;;;;;4992757;28;20050;-75
2022/07/01 07:01:11;;;;;;;13.98;8.70;;;;;;;;;;4983938;28;20051;-75
2022/07/01 07:03:38;;;;;;;12.93;8.73;;;;;;;;;;5000434;28;20042;-75
2022/07/01 07:06:04;;;;;;;11.85;8.70;;;;;;;;;;4999018;28;20038;-75
2022/07/01 07:08:31;;;;;;;12.38;8.30;;;;;;;;;;5000404;28;20030;-75
2022/07/01 07:10:57;;;;;;;15.95;8.63;;;;;;;;;;4996596;28;20053;-76
2022/07/01 07:13:23;;;;;;;17.48;8.73;;;;;;;;;;4991641;28;20070;-80
2022/07/01 07:15:50;;;;;;;12.30;7.78;;;;;;;;;;4981117;28;20031;-76
2022/07/01 07:18:16;;;;;;;12.10;7.68;;;;;;;;;;4991982;28;20629;-78
2022/07/01 07:20:42;;;;;;;14.60;7.60;;;;;;;;;;4997928;28;20034;-76
2022/07/01 07:23:08;;;;;;;13.40;7.93;;;;;;;;;;4998924;28;20050;-76
2022/07/01 07:25:34;;;;;;;10.52;6.78;;;;;;;;;;4999626;28;20043;-76
2022/07/01 07:28:00;;;;;;;9.18;6.13;;;;;;;;;;5004317;28;20113;-76
2022/07/01 07:30:27;;;;;;;10.85;6.47;;;;;;;;;;5003017;28;20031;-76
2022/07/01 07:32:53;;;;;;;10.48;5.85;;;;;;;;;;4997338;28;20180;-76
2022/07/01 07:35:19;;;;;;;10.57;6.13;;;;;;;;;;4997745;28;20045;-76
2022/07/01 07:37:45;;;;;;;10.07;5.43;;;;;;;;;;4999957;28;20085;-75
2022/07/01 07:40:14;;;;;;;10.25;5.63;;;;;;;;;;4998057;28;20042;-76
2022/07/01 07:42:40;;;;;;;11.00;5.43;;;;;;;;;;4999603;28;20038;-76
2022/07/01 07:45:07;;;;;;;9.95;4.93;;;;;;;;;;4989646;28;20039;-76
2022/07/01 07:47:36;;;;;;;10.32;5.32;;;;;;;;;;5006111;28;20049;-76
2022/07/01 07:50:03;;;;;;;10.77;4.75;;;;;;;;;;5012181;28;20045;-76
2022/07/01 07:52:29;;;;;;;8.43;4.38;;;;;;;;;;4994410;28;20038;-76
2022/07/01 07:54:55;;;;;;;10.20;4.30;;;;;;;;;;5005691;28;20030;-85
2022/07/01 07:57:21;;;;;;;7.93;3.65;;;;;;;;;;4996382;28;20090;-77
2022/07/01 07:59:48;;;;;;;10.32;3.75;;;;;;;;;;4976102;28;20039;-76
2022/07/01 08:02:14;;;;;;;6.55;3.78;;;;;;;;;;5003755;28;20050;-76
2022/07/01 08:04:40;;;;;;;8.88;3.60;;;;;;;;;;4999484;28;20037;-77
2022/07/01 08:07:06;;;;;;;7.40;3.38;;;;;;;;;;4999617;28;20055;-76
2022/07/01 08:09:34;;;;;;;7.57;3.13;;;;;;;;;;4999599;28;20042;-76
2022/07/01 08:12:00;;;;;;;8.85;3.00;;;;;;;;;;4999350;28;20051;-76
2022/07/01 08:14:26;;;;;;;6.90;2.72;;;;;;;;;;5000845;28;20027;-76
2022/07/01 08:16:53;;;;;;;9.82;2.92;;;;;;;;;;4999132;28;20027;-81
2022/07/01 08:19:19;;;;;;;7.38;2.50;;;;;;;;;;4999436;28;20062;-76
2022/07/01 08:21:45;;;;;;;6.90;2.72;;;;;;;;;;4999450;28;20034;-75
2022/07/01 08:24:11;;;;;;;6.55;2.30;;;;;;;;;;4999426;28;20077;-75
2022/07/01 08:26:37;;;;;;;4.80;2.47;;;;;;;;;;4999259;28;20041;-75
2022/07/01 08:29:03;;;;;;;8.27;2.75;;;;;;;;;;4998321;28;20057;-76
2022/07/01 08:31:29;;;;;;;8.52;2.90;;;;;;;;;;4999268;28;20053;-75
2022/07/01 08:33:55;;;;;;;5.72;2.80;;;;;;;;;;4998554;28;20066;-76
2022/07/01 08:36:22;;;;;;;5.28;2.42;;;;;;;;;;4999217;28;20042;-75
2022/07/01 08:38:49;;;;;;;4.78;2.20;;;;;;;;;;4998751;28;20038;-76
2022/07/01 08:41:15;;;;;;;5.78;2.40;;;;;;;;;;4998945;28;20142;-75
2022/07/01 08:43:41;;;;;;;5.85;2.28;;;;;;;;;;5002644;28;20080;-76
2022/07/01 08:46:08;;;;;;;6.30;2.58;;;;;;;;;;4998299;28;20023;-76
2022/07/01 08:48:34;;;;;;;6.32;2.03;;;;;;;;;;4999061;28;20070;-76
2022/07/01 08:51:03;;;;;;;6.65;2.42;;;;;;;;;;4998626;28;20038;-76
2022/07/01 08:53:33;;;;;;;5.68;2.20;;;;;;;;;;4998623;28;20058;-76
2022/07/01 08:58:47;;;;;;;4.47;2.40;;;;;;;;;;5001276;28;20031;-76
2022/07/01 09:01:13;;;;;;;5.13;2.05;;;;;;;;;;5010745;28;20038;-74
2022/07/01 09:03:40;;;;;;;5.47;2.50;;;;;;;;;;5021129;28;20090;-75
2022/07/01 09:06:11;;;;;;;6.15;2.38;;;;;;;;;;5018398;28;20102;-76
2022/07/01 09:08:37;;;;;;;5.15;2.40;;;;;;;;;;5020669;28;20085;-76
2022/07/01 09:11:17;;;;;;;7.20;2.20;;;;;;;;;;5002618;28;20062;-75
2022/07/01 09:13:44;;;;;;;5.82;2.20;;;;;;;;;;5002387;28;20034;-75
2022/07/01 09:16:14;;;;;;;6.40;2.30;;;;;;;;;;5002071;28;20039;-76
2022/07/01 09:18:40;;;;;;;6.82;2.35;;;;;;;;;;5002720;28;20030;-76
2022/07/01 09:21:13;;;;;;;7.20;2.33;;;;;;;;;;5001927;28;20027;-75
2022/07/01 09:23:40;;;;;;;6.35;2.25;;;;;;;;;;5002746;28;20027;-74
2022/07/01 09:26:06;;;;;;;5.57;2.10;;;;;;;;;;5006330;28;20026;-75
2022/07/01 09:28:32;;;;;;;4.72;2.03;;;;;;;;;;5016555;28;20042;-76
2022/07/01 09:30:59;;;;;;;5.45;2.00;;;;;;;;;;5010782;28;20042;-74
2022/07/01 09:33:29;;;;;;;3.78;2.22;;;;;;;;;;4998150;28;20027;-74
2022/07/01 09:35:55;;;;;;;5.07;1.95;;;;;;;;;;5000604;28;20035;-74
2022/07/01 09:38:23;;;;;;;5.15;2.25;;;;;;;;;;5002338;28;20062;-76
2022/07/01 09:40:57;;;;;;;3.92;2.00;;;;;;;;;;5000766;28;20063;-76
2022/07/01 09:43:31;;;;;;;7.60;2.17;;;;;;;;;;4984606;28;20031;-75
2022/07/01 09:45:57;;;;;;;4.05;1.80;;;;;;;;;;5001066;28;20043;-76
2022/07/01 09:48:24;;;;;;;3.15;1.85;;;;;;;;;;4998849;28;20043;-74
2022/07/01 09:50:50;;;;;;;2.13;1.80;;;;;;;;;;4998198;28;20043;-76
2022/07/01 09:53:16;;;;;;;4.53;1.75;;;;;;;;;;4994963;28;20047;-76
2022/07/01 09:55:42;;;;;;;3.90;1.80;;;;;;;;;;5008277;28;20043;-77
2022/07/01 09:58:09;;;;;;;5.53;2.25;;;;;;;;;;5002045;28;20058;-75
2022/07/01 10:00:36;;;;;;;4.60;1.90;;;;;;;;;;4998972;28;20034;-75
2022/07/01 10:03:03;;;;;;;4.72;1.90;;;;;;;;;;4999338;28;20027;-76
2022/07/01 10:05:30;;;;;;;3.50;1.70;;;;;;;;;;5001866;28;20033;-75
2022/07/01 10:08:11;;;;;;;2.70;1.70;;;;;;;;;;5001140;28;20034;-75
2022/07/01 10:10:52;;;;;;;3.85;1.90;;;;;;;;;;5000243;28;20050;-75
2022/07/01 10:13:22;;;;;;;4.00;1.90;;;;;;;;;;5000748;28;20043;-76
2022/07/01 10:15:48;;;;;;;4.43;2.00;;;;;;;;;;5001318;28;20023;-74
2022/07/01 10:18:24;;;;;;;3.63;2.00;;;;;;;;;;5000177;28;20066;-71
2022/07/01 10:20:51;;;;;;;4.50;1.95;;;;;;;;;;5000205;28;20042;-72
2022/07/01 10:23:19;;;;;;;5.65;2.00;;;;;;;;;;4998230;28;20108;-72
2022/07/01 10:25:46;;;;;;;3.78;1.95;;;;;;;;;;4998933;28;20043;-72
2022/07/01 10:28:15;;;;;;;4.05;1.90;;;;;;;;;;5013100;28;20019;-72
2022/07/01 10:30:50;;;;;;;3.92;1.90;;;;;;;;;;4982733;28;20039;-72
2022/07/01 10:33:32;;;;;;;5.13;2.00;;;;;;;;;;4999871;28;20055;-72
2022/07/01 10:36:08;;;;;;;3.10;1.80;;;;;;;;;;4985260;28;20119;-71
2022/07/01 10:38:34;;;;;;;3.15;1.70;;;;;;;;;;4990316;28;20039;-71
2022/07/01 10:41:09;;;;;;;4.32;1.77;;;;;;;;;;4995256;28;20055;-72
2022/07/01 10:43:41;;;;;;;2.88;1.90;;;;;;;;;;4985714;28;20050;-73
2022/07/01 10:46:07;;;;;;;6.05;1.90;;;;;;;;;;4999825;28;20031;-75
2022/07/01 10:48:34;;;;;;;5.22;2.08;;;;;;;;;;4984974;28;20023;-74
2022/07/01 10:51:00;;;;;;;4.47;2.10;;;;;;;;;;5002103;28;20059;-75
2022/07/01 10:53:45;;;;;;;3.83;2.13;;;;;;;;;;5001004;28;20045;-74
2022/07/01 10:56:15;;;;;;;5.80;2.30;;;;;;;;;;5001112;28;20082;-74
2022/07/01 10:58:42;;;;;;;4.35;2.30;;;;;;;;;;4983705;28;20035;-74
2022/07/01 11:01:09;;;;;;;5.88;2.40;;;;;;;;;;4991232;28;20041;-75
2022/07/01 11:03:36;;;;;;;4.80;2.30;;;;;;;;;;5000732;28;20033;-73
2022/07/01 11:06:02;;;;;;;4.97;2.50;;;;;;;;;;5004361;28;20026;-73
2022/07/01 11:08:28;;;;;;;6.50;2.50;;;;;;;;;;5020326;28;20031;-73
2022/07/01 11:10:56;;;;;;;4.40;2.20;;;;;;;;;;5020241;28;20030;-73
2022/07/01 11:13:22;;;;;;;5.90;2.40;;;;;;;;;;4987582;28;20035;-73
2022/07/01 11:15:48;;;;;;;4.50;2.30;;;;;;;;;;4997577;28;20033;-73
2022/07/01 11:18:19;;;;;;;3.78;2.20;;;;;;;;;;4999421;28;20039;-74
2022/07/01 11:20:45;;;;;;;4.47;2.20;;;;;;;;;;5013627;28;20026;-72
2022/07/01 11:23:12;;;;;;;6.68;2.50;;;;;;;;;;5019862;28;20033;-73
2022/07/01 11:25:38;;;;;;;5.32;2.45;;;;;;;;;;5000975;28;20050;-73
2022/07/01 11:28:04;;;;;;;4.78;2.70;;;;;;;;;;5000276;28;20046;-73
2022/07/01 11:30:30;;;;;;;6.20;2.53;;;;;;;;;;4998187;28;20035;-74
2022/07/01 11:32:57;;;;;;;4.28;2.30;;;;;;;;;;4998802;28;20026;-73
2022/07/01 11:41:10;;;;;;;4.00;1.90;;;;;;;;;;4992919;28;20098;-73
2022/07/01 11:43:38;;;;;;;4.57;2.05;;;;;;;;;;4980790;28;20043;-73
2022/07/01 11:46:05;;;;;;;3.35;1.95;;;;;;;;;;4980552;28;20039;-72
2022/07/01 11:48:40;;;;;;;3.10;1.83;;;;;;;;;;4981053;28;20027;-73
2022/07/01 11:51:07;;;;;;;4.63;2.08;;;;;;;;;;4980421;28;20082;-72
2022/07/01 11:53:33;;;;;;;4.03;2.00;;;;;;;;;;4980625;28;20091;-72
2022/07/01 11:56:00;;;;;;;4.93;2.17;;;;;;;;;;4980401;28;20031;-72
2022/07/01 11:58:40;;;;;;;5.60;2.10;;;;;;;;;;5006378;28;20051;-73
2022/07/01 12:01:08;;;;;;;2.97;1.80;;;;;;;;;;4999684;28;20031;-72
2022/07/01 12:03:35;;;;;;;5.18;2.22;;;;;;;;;;5000173;28;20102;-73
2022/07/01 12:06:01;;;;;;;3.42;1.80;;;;;;;;;;5004203;28;20030;-72
2022/07/01 12:08:27;;;;;;;3.85;1.73;;;;;;;;;;4999621;28;20030;-71
2022/07/01 12:10:54;;;;;;;3.65;1.83;;;;;;;;;;4997956;28;20023;-73
2022/07/01 12:13:26;;;;;;;2.67;1.70;;;;;;;;;;4999619;28;20026;-71
2022/07/01 12:15:53;;;;;;;4.72;1.85;;;;;;;;;;4999516;28;20037;-73
2022/07/01 12:18:19;;;;;;;3.97;1.80;;;;;;;;;;5001757;28;20045;-73
2022/07/01 12:20:49;;;;;;;3.25;1.67;;;;;;;;;;5016471;28;20056;-73
2022/07/01 12:23:16;;;;;;;5.47;2.00;;;;;;;;;;5011963;28;20023;-72
2022/07/01 12:25:46;;;;;;;6.20;1.85;;;;;;;;;;4998225;28;20039;-72
2022/07/01 12:28:29;;;;;;;4.55;1.58;;;;;;;;;;4998610;28;20042;-74
2022/07/01 12:31:21;;;;;;;3.42;1.70;;;;;;;;;;4999046;28;20049;-74
2022/07/01 12:33:53;;;;;;;4.55;1.50;;;;;;;;;;5006280;28;20090;-75
2022/07/01 12:36:19;;;;;;;4.20;1.70;;;;;;;;;;5015439;28;20030;-74
2022/07/01 12:38:45;;;;;;;2.85;1.67;;;;;;;;;;5018691;28;20023;-75
2022/07/01 12:41:35;;;;;;;3.15;1.45;;;;;;;;;;4988254;28;20035;-74
2022/07/01 12:44:05;;;;;;;2.78;1.35;;;;;;;;;;4992246;28;20038;-74
2022/07/01 12:46:32;;;;;;;2.00;1.50;;;;;;;;;;4998164;28;20031;-75
2022/07/01 12:48:58;;;;;;;3.45;1.60;;;;;;;;;;4999649;28;20022;-74
2022/07/01 12:51:31;;;;;;;4.57;1.90;;;;;;;;;;4999151;28;20054;-74
2022/07/01 12:53:57;;;;;;;3.88;1.40;;;;;;;;;;4998989;28;20070;-75
2022/07/01 12:56:24;;;;;;;1.85;1.42;;;;;;;;;;4998511;28;20098;-74
2022/07/01 12:58:53;;;;;;;5.18;1.92;;;;;;;;;;4998817;28;20038;-75
2022/07/01 13:01:19;;;;;;;5.05;1.63;;;;;;;;;;4998961;28;20034;-74
2022/07/01 13:03:46;;;;;;;8.07;1.92;;;;;;;;;;5006849;28;20101;-74
2022/07/01 13:06:12;;;;;;;7.10;1.70;;;;;;;;;;5018410;28;20030;-74
2022/07/01 13:08:38;;;;;;;3.15;1.50;;;;;;;;;;5017950;28;20042;-74
2022/07/01 13:11:04;;;;;;;3.33;1.77;;;;;;;;;;4987087;28;20111;-75
2022/07/01 13:13:30;;;;;;;3.25;1.65;;;;;;;;;;4979464;28;20050;-75
2022/07/01 13:15:56;;;;;;;3.03;1.50;;;;;;;;;;4996237;28;20038;-75
2022/07/01 13:18:22;;;;;;;4.78;1.73;;;;;;;;;;5003754;28;20027;-74
2022/07/01 13:20:48;;;;;;;4.72;1.80;;;;;;;;;;5017936;28;20054;-75
2022/07/01 13:23:14;;;;;;;2.80;1.70;;;;;;;;;;5018225;28;20089;-77
2022/07/01 13:25:41;;;;;;;4.45;1.95;;;;;;;;;;4983408;28;20053;-75
2022/07/01 13:28:07;;;;;;;4.07;1.73;;;;;;;;;;4998272;28;20023;-75
2022/07/01 13:30:37;;;;;;;4.70;1.95;;;;;;;;;;4998455;28;20061;-74
2022/07/01 13:33:03;;;;;;;4.20;1.80;;;;;;;;;;5003617;28;20077;-74
2022/07/01 13:35:29;;;;;;;4.35;1.92;;;;;;;;;;5012542;28;20049;-74
2022/07/01 13:37:55;;;;;;;3.40;1.90;;;;;;;;;;4997975;28;20043;-74
2022/07/01 13:40:21;;;;;;;6.85;2.25;;;;;;;;;;4990184;28;20112;-74
2022/07/01 13:42:51;;;;;;;3.67;1.85;;;;;;;;;;4985083;28;20038;-74
2022/07/01 13:45:17;;;;;;;4.28;2.03;;;;;;;;;;4982328;28;20083;-77
2022/07/01 13:47:43;;;;;;;4.90;1.98;;;;;;;;;;5000901;28;20113;-76
2022/07/01 13:50:10;;;;;;;5.10;2.33;;;;;;;;;;5021655;28;20038;-76
2022/07/01 13:52:36;;;;;;;5.65;2.10;;;;;;;;;;5021713;28;20030;-76
2022/07/01 13:55:02;;;;;;;10.27;2.50;;;;;;;;;;5012808;28;20023;-76
2022/07/01 13:57:29;;;;;;;4.18;2.00;;;;;;;;;;4998707;28;20062;-74
2022/07/01 13:59:56;;;;;;;5.35;2.00;;;;;;;;;;4997992;28;20035;-74
2022/07/01 14:02:22;;;;;;;7.10;2.10;;;;;;;;;;4996189;28;20038;-74
2022/07/01 14:04:49;;;;;;;5.88;2.22;;;;;;;;;;5001625;28;20043;-72
2022/07/01 14:07:15;;;;;;;7.40;2.30;;;;;;;;;;4998561;28;20079;-72
2022/07/01 14:09:43;;;;;;;5.13;2.20;;;;;;;;;;4980340;28;20038;-74
2022/07/01 14:12:09;;;;;;;4.53;2.05;;;;;;;;;;4999901;28;20063;-73
2022/07/01 14:14:35;;;;;;;5.68;1.90;;;;;;;;;;5000178;28;20098;-73
2022/07/01 14:17:01;;;;;;;4.72;1.70;;;;;;;;;;5014304;28;20041;-73
2022/07/01 14:19:27;;;;;;;4.35;2.00;;;;;;;;;;5014409;28;20038;-74
2022/07/01 14:21:54;;;;;;;7.05;1.80;;;;;;;;;;4999450;28;20083;-73
2022/07/01 14:24:21;;;;;;;5.22;1.90;;;;;;;;;;5001129;28;20406;-73
2022/07/01 14:26:47;;;;;;;5.22;2.00;;;;;;;;;;4999433;28;20038;-73
2022/07/01 14:29:13;;;;;;;3.83;1.77;;;;;;;;;;5001954;28;20053;-75
2022/07/01 14:31:39;;;;;;;5.40;2.00;;;;;;;;;;4999042;28;20022;-74
2022/07/01 14:34:05;;;;;;;6.28;2.47;;;;;;;;;;4990351;28;20130;-74
2022/07/01 14:36:31;;;;;;;6.55;1.98;;;;;;;;;;5020490;28;20058;-73
2022/07/01 14:38:57;;;;;;;3.70;2.05;;;;;;;;;;5004984;28;20031;-74
2022/07/01 14:41:23;;;;;;;5.18;1.95;;;;;;;;;;5000556;28;20042;-73
2022/07/01 14:43:49;;;;;;;5.47;1.75;;;;;;;;;;5000292;28;20090;-74
2022/07/01 14:46:15;;;;;;;6.90;1.90;;;;;;;;;;4997621;28;20034;-72
2022/07/01 14:48:42;;;;;;;3.10;1.70;;;;;;;;;;4997080;28;20042;-77
2022/07/01 14:51:08;;;;;;;7.03;1.90;;;;;;;;;;5000669;28;20046;-74
2022/07/01 14:53:34;;;;;;;6.00;2.05;;;;;;;;;;4999717;28;20018;-73
2022/07/01 14:56:00;;;;;;;5.65;1.80;;;;;;;;;;5000502;28;20031;-73
2022/07/01 14:58:26;;;;;;;3.97;1.70;;;;;;;;;;5000154;28;20086;-77
2022/07/01 15:00:52;;;;;;;5.03;1.90;;;;;;;;;;4999919;28;20062;-74
2022/07/01 15:03:18;;;;;;;4.28;1.90;;;;;;;;;;4999572;28;20043;-74